North Hollywood, CA (91617)

9:41 PM PDT on September 18, 2014 (GMT -0700)
North Hollywood, CA | Change Station
CLOSE
Current Station
Personal Weather Station
Location: North Hollywood, CA
Elevation: 679 ft
Nearby Weather Stations

Elev 679 ft 34.18 °N, 118.37 °W | Updated 8 minutes ago

Clear
Clear
72.7 °F
Feels Like 77 °F
N
2.5
Wind Variable Wind from ESE
Gusts 2.5 mph

Today
High -- | Low -- °F
--% Chance of Precip.
Yesterday
High -- | Low -- °F
Precip. -- in
6:38 AM 6:55 PM
Waning Crescent, 22% visible
Pressure 29.81 in
Visibility 10.0 miles
Clouds Clear
Heat Index 77 °F
Dew Point 56 °F
Humidity 55%
Rainfall 0.00 in
Snow Depth 0 in , 0 in , 0 in
UV 0 out of 12
Pollen 6.80 out of 12
Ozone Good
PM2.5 Moderate
Flu Activity Not available.
METAR KBUR 190353Z 11005KT 10SM CLR 22/17 A2985 RMK AO2 SLP095 T02170167

More Conditions Fewer Conditions

Pressure 29.81 in
Visibility 10.0 miles
Clouds Clear
Heat Index 77 °F
Dew Point 56 °F
Humidity 55%
Rainfall 0.00 in
Snow Depth 0 in , 0 in , 0 in
UV 0 out of 12
Pollen 6.80 out of 12
Ozone Good
PM2.5 Moderate
Flu Activity Not available.
METAR KBUR 190353Z 11005KT 10SM CLR 22/17 A2985 RMK AO2 SLP095 T02170167

More Conditions Fewer Conditions

10-Day Weather Forecast

Almanac

Astronomy

Sep. 18, 2014 Rise Set
Actual Time 6:38 AM PDT 6:55 PM PDT
Civil Twilight 6:13 AM PDT 7:20 PM PDT
Nautical Twilight 5:44 AM PDT 7:50 PM PDT
Astronomical Twilight 5:14 AM PDT 8:19 PM PDT
Moon 1:45 AM PDT (9/18) 3:40 PM PDT (9/18)
Length of Visible Light 13h 07m
Length of Day
12h 16m
Tomorrow will be 2m 7s shorter.
Waning Crescent, 22% of the Moon is Illuminated
Sep 19
Waning Crescent
Sep 24
New
Oct 1
First Quarter
Oct 8
Full
Oct 15
Last Quarter

Yesterday's Extremes

State Highs State Lows

Community

WunderPhotos

Upload Photos

1,754,558 photos uploaded!

Nearby

Air Quality

  Air Quality AQ Index Pollutant
Yesterday Moderate
PM2.5
Yesterday Moderate
OZONE
Current Moderate
PM2.5
Current Good
OZONE
Friday Good
PM10
Friday Good
OZONE
Friday Good
CO
Friday Good
NO2

Snow Depth

Station Depth Elevation
Burnside Lake 0 in 8139 ft
Heavenly Valley 0 in 8850 ft
Tahoe City Cross 0 in 6750 ft
Leavitt Meadows 0 in 7200 ft
Echo Peak 1 in 7800 ft

Earthquake Activity

City Distance Mag. Time & Date
Corcoran, California 150 miles 3.0 3:59 PM PDT
2014-09-18
La Quinta, California 119 miles 2.7 8:59 PM PDT
2014-09-15
Minimum magnitude displayed is 2.5.

Coastal Water Temperatures

Place Temperature
Santa Monica Pier 71.1 °F
Los Angeles, CA 66.9 °F
La Jolla, CA 72.0 °F

Nearby Weather Stations